sensor_id;sensor_type;location;lat;lon;timestamp;pressure;altitude;pressure_sealevel;temperature
11321;BMP180;5715;48.234;14.320;2023-06-26T00:01:50;98602.00;;;24.20
11321;BMP180;5715;48.234;14.320;2023-06-26T00:04:38;98603.00;;;24.20
11321;BMP180;5715;48.234;14.320;2023-06-26T00:07:25;98605.00;;;24.10
11321;BMP180;5715;48.234;14.320;2023-06-26T00:10:13;98609.00;;;24.10
11321;BMP180;5715;48.234;14.320;2023-06-26T00:13:01;98603.00;;;24.10
11321;BMP180;5715;48.234;14.320;2023-06-26T00:15:50;98602.00;;;24.10
11321;BMP180;5715;48.234;14.320;2023-06-26T00:18:38;98606.00;;;24.10
11321;BMP180;5715;48.234;14.320;2023-06-26T00:21:25;98600.00;;;24.10
11321;BMP180;5715;48.234;14.320;2023-06-26T00:24:15;98592.00;;;24.10
11321;BMP180;5715;48.234;14.320;2023-06-26T00:27:02;98597.00;;;24.00
11321;BMP180;5715;48.234;14.320;2023-06-26T00:29:50;98600.00;;;24.10
11321;BMP180;5715;48.234;14.320;2023-06-26T00:32:40;98602.00;;;24.10
11321;BMP180;5715;48.234;14.320;2023-06-26T00:35:27;98607.00;;;24.10
11321;BMP180;5715;48.234;14.320;2023-06-26T00:38:15;98609.00;;;24.00
11321;BMP180;5715;48.234;14.320;2023-06-26T00:41:04;98615.00;;;23.60
11321;BMP180;5715;48.234;14.320;2023-06-26T00:43:52;98618.00;;;23.60
11321;BMP180;5715;48.234;14.320;2023-06-26T00:46:40;98621.00;;;23.60
11321;BMP180;5715;48.234;14.320;2023-06-26T00:49:28;98611.00;;;23.60
11321;BMP180;5715;48.234;14.320;2023-06-26T00:52:16;98613.00;;;23.50
11321;BMP180;5715;48.234;14.320;2023-06-26T00:55:04;98613.00;;;23.40
11321;BMP180;5715;48.234;14.320;2023-06-26T00:57:54;98615.00;;;23.40
11321;BMP180;5715;48.234;14.320;2023-06-26T01:00:42;98611.00;;;23.40
11321;BMP180;5715;48.234;14.320;2023-06-26T01:03:32;98610.00;;;23.30
11321;BMP180;5715;48.234;14.320;2023-06-26T01:06:23;98613.00;;;23.40
11321;BMP180;5715;48.234;14.320;2023-06-26T01:09:13;98612.00;;;23.40
11321;BMP180;5715;48.234;14.320;2023-06-26T01:12:01;98611.00;;;23.10
11321;BMP180;5715;48.234;14.320;2023-06-26T01:14:49;98610.00;;;23.10
11321;BMP180;5715;48.234;14.320;2023-06-26T01:17:38;98600.00;;;23.10
11321;BMP180;5715;48.234;14.320;2023-06-26T01:20:27;98600.00;;;23.10
11321;BMP180;5715;48.234;14.320;2023-06-26T01:23:24;98600.00;;;23.20
11321;BMP180;5715;48.234;14.320;2023-06-26T01:26:20;98597.00;;;23.00
11321;BMP180;5715;48.234;14.320;2023-06-26T01:29:10;98594.00;;;23.20
11321;BMP180;5715;48.234;14.320;2023-06-26T01:32:00;98593.00;;;23.10
11321;BMP180;5715;48.234;14.320;2023-06-26T01:34:49;98591.00;;;23.10
11321;BMP180;5715;48.234;14.320;2023-06-26T01:37:36;98591.00;;;23.00
11321;BMP180;5715;48.234;14.320;2023-06-26T01:40:24;98582.00;;;22.90
11321;BMP180;5715;48.234;14.320;2023-06-26T01:47:04;98571.00;;;23.10
11321;BMP180;5715;48.234;14.320;2023-06-26T01:50:11;98577.00;;;23.20
11321;BMP180;5715;48.234;14.320;2023-06-26T01:53:15;98568.00;;;23.10
11321;BMP180;5715;48.234;14.320;2023-06-26T01:56:13;98573.00;;;23.00
11321;BMP180;5715;48.234;14.320;2023-06-26T01:59:03;98563.00;;;23.00
11321;BMP180;5715;48.234;14.320;2023-06-26T02:01:53;98564.00;;;22.90
11321;BMP180;5715;48.234;14.320;2023-06-26T02:04:41;98567.00;;;23.00
11321;BMP180;5715;48.234;14.320;2023-06-26T02:07:29;98567.00;;;22.90
11321;BMP180;5715;48.234;14.320;2023-06-26T02:10:17;98571.00;;;22.90
11321;BMP180;5715;48.234;14.320;2023-06-26T02:13:05;98576.00;;;22.90
11321;BMP180;5715;48.234;14.320;2023-06-26T02:15:52;98577.00;;;22.50
11321;BMP180;5715;48.234;14.320;2023-06-26T02:18:40;98578.00;;;22.40
11321;BMP180;5715;48.234;14.320;2023-06-26T02:21:28;98580.00;;;22.60
11321;BMP180;5715;48.234;14.320;2023-06-26T02:24:16;98577.00;;;22.70
11321;BMP180;5715;48.234;14.320;2023-06-26T02:27:04;98586.00;;;22.70
11321;BMP180;5715;48.234;14.320;2023-06-26T02:29:52;98587.00;;;22.60
11321;BMP180;5715;48.234;14.320;2023-06-26T02:32:39;98596.00;;;22.50
11321;BMP180;5715;48.234;14.320;2023-06-26T02:35:27;98603.00;;;22.30
11321;BMP180;5715;48.234;14.320;2023-06-26T02:38:14;98598.00;;;22.50
11321;BMP180;5715;48.234;14.320;2023-06-26T02:41:02;98595.00;;;22.60
11321;BMP180;5715;48.234;14.320;2023-06-26T02:43:50;98599.00;;;22.70
11321;BMP180;5715;48.234;14.320;2023-06-26T02:46:38;98596.00;;;22.60
11321;BMP180;5715;48.234;14.320;2023-06-26T02:49:26;98596.00;;;22.60
11321;BMP180;5715;48.234;14.320;2023-06-26T02:52:14;98606.00;;;22.40
11321;BMP180;5715;48.234;14.320;2023-06-26T02:55:01;98612.00;;;22.40
11321;BMP180;5715;48.234;14.320;2023-06-26T02:57:50;98608.00;;;22.30
11321;BMP180;5715;48.234;14.320;2023-06-26T03:00:38;98601.00;;;22.20
11321;BMP180;5715;48.234;14.320;2023-06-26T03:03:29;98606.00;;;22.10
11321;BMP180;5715;48.234;14.320;2023-06-26T03:06:17;98611.00;;;22.10
11321;BMP180;5715;48.234;14.320;2023-06-26T03:09:04;98616.00;;;22.00
11321;BMP180;5715;48.234;14.320;2023-06-26T03:11:52;98610.00;;;22.00
11321;BMP180;5715;48.234;14.320;2023-06-26T03:14:40;98606.00;;;22.20
11321;BMP180;5715;48.234;14.320;2023-06-26T03:17:28;98604.00;;;22.40
11321;BMP180;5715;48.234;14.320;2023-06-26T03:20:15;98607.00;;;22.40
11321;BMP180;5715;48.234;14.320;2023-06-26T03:23:03;98606.00;;;22.30
11321;BMP180;5715;48.234;14.320;2023-06-26T03:25:51;98605.00;;;22.40
11321;BMP180;5715;48.234;14.320;2023-06-26T03:28:39;98604.00;;;22.40
11321;BMP180;5715;48.234;14.320;2023-06-26T03:31:26;98606.00;;;22.40
11321;BMP180;5715;48.234;14.320;2023-06-26T03:34:14;98614.00;;;22.40
11321;BMP180;5715;48.234;14.320;2023-06-26T03:37:02;98619.00;;;22.40
11321;BMP180;5715;48.234;14.320;2023-06-26T03:39:49;98618.00;;;22.40
11321;BMP180;5715;48.234;14.320;2023-06-26T03:42:37;98625.00;;;22.60
11321;BMP180;5715;48.234;14.320;2023-06-26T03:45:25;98630.00;;;22.80
11321;BMP180;5715;48.234;14.320;2023-06-26T03:48:12;98625.00;;;22.90
11321;BMP180;5715;48.234;14.320;2023-06-26T03:51:00;98625.00;;;23.40
11321;BMP180;5715;48.234;14.320;2023-06-26T03:53:49;98617.00;;;24.10
11321;BMP180;5715;48.234;14.320;2023-06-26T03:56:37;98617.00;;;25.30
11321;BMP180;5715;48.234;14.320;2023-06-26T03:59:24;98613.00;;;26.00
11321;BMP180;5715;48.234;14.320;2023-06-26T04:02:12;98602.00;;;26.60
11321;BMP180;5715;48.234;14.320;2023-06-26T04:05:01;98613.00;;;26.30
11321;BMP180;5715;48.234;14.320;2023-06-26T04:07:52;98612.00;;;26.40
11321;BMP180;5715;48.234;14.320;2023-06-26T04:10:40;98613.00;;;26.40
11321;BMP180;5715;48.234;14.320;2023-06-26T04:13:27;98608.00;;;26.10
11321;BMP180;5715;48.234;14.320;2023-06-26T04:16:15;98616.00;;;25.90
11321;BMP180;5715;48.234;14.320;2023-06-26T04:19:03;98616.00;;;26.00
11321;BMP180;5715;48.234;14.320;2023-06-26T04:21:52;98624.00;;;25.90
11321;BMP180;5715;48.234;14.320;2023-06-26T04:24:39;98621.00;;;25.80
11321;BMP180;5715;48.234;14.320;2023-06-26T04:27:27;98626.00;;;25.90
11321;BMP180;5715;48.234;14.320;2023-06-26T04:30:16;98632.00;;;26.50
11321;BMP180;5715;48.234;14.320;2023-06-26T04:33:03;98629.00;;;27.60
11321;BMP180;5715;48.234;14.320;2023-06-26T04:35:51;98640.00;;;28.80
11321;BMP180;5715;48.234;14.320;2023-06-26T04:38:39;98639.00;;;29.80
11321;BMP180;5715;48.234;14.320;2023-06-26T04:41:26;98639.00;;;30.70
11321;BMP180;5715;48.234;14.320;2023-06-26T04:44:14;98639.00;;;31.50
11321;BMP180;5715;48.234;14.320;2023-06-26T04:47:02;98640.00;;;32.30
11321;BMP180;5715;48.234;14.320;2023-06-26T04:49:50;98638.00;;;32.10
11321;BMP180;5715;48.234;14.320;2023-06-26T04:52:37;98647.00;;;31.70
11321;BMP180;5715;48.234;14.320;2023-06-26T04:55:26;98640.00;;;31.20
11321;BMP180;5715;48.234;14.320;2023-06-26T04:58:14;98643.00;;;31.40
11321;BMP180;5715;48.234;14.320;2023-06-26T05:01:02;98642.00;;;32.30
11321;BMP180;5715;48.234;14.320;2023-06-26T05:03:50;98647.00;;;33.30
11321;BMP180;5715;48.234;14.320;2023-06-26T05:06:37;98652.00;;;33.70
11321;BMP180;5715;48.234;14.320;2023-06-26T05:09:25;98645.00;;;33.70
11321;BMP180;5715;48.234;14.320;2023-06-26T05:12:13;98647.00;;;34.50
11321;BMP180;5715;48.234;14.320;2023-06-26T05:15:00;98649.00;;;34.80
11321;BMP180;5715;48.234;14.320;2023-06-26T05:17:48;98651.00;;;35.00
11321;BMP180;5715;48.234;14.320;2023-06-26T05:20:37;98655.00;;;35.00
11321;BMP180;5715;48.234;14.320;2023-06-26T05:23:25;98650.00;;;35.60
11321;BMP180;5715;48.234;14.320;2023-06-26T05:26:14;98653.00;;;34.40
11321;BMP180;5715;48.234;14.320;2023-06-26T05:29:02;98644.00;;;34.30
11321;BMP180;5715;48.234;14.320;2023-06-26T05:31:51;98643.00;;;34.40
11321;BMP180;5715;48.234;14.320;2023-06-26T05:34:41;98638.00;;;34.30
11321;BMP180;5715;48.234;14.320;2023-06-26T05:37:30;98640.00;;;33.40
11321;BMP180;5715;48.234;14.320;2023-06-26T05:40:19;98639.00;;;33.00
11321;BMP180;5715;48.234;14.320;2023-06-26T05:43:07;98641.00;;;33.90
11321;BMP180;5715;48.234;14.320;2023-06-26T05:45:56;98649.00;;;34.30
11321;BMP180;5715;48.234;14.320;2023-06-26T05:48:45;98645.00;;;34.50
11321;BMP180;5715;48.234;14.320;2023-06-26T05:51:33;98646.00;;;34.20
11321;BMP180;5715;48.234;14.320;2023-06-26T05:54:21;98634.00;;;35.20
11321;BMP180;5715;48.234;14.320;2023-06-26T05:57:09;98640.00;;;34.70
11321;BMP180;5715;48.234;14.320;2023-06-26T05:59:58;98638.00;;;34.20
11321;BMP180;5715;48.234;14.320;2023-06-26T06:02:45;98646.00;;;33.10
11321;BMP180;5715;48.234;14.320;2023-06-26T06:05:33;98647.00;;;33.60
11321;BMP180;5715;48.234;14.320;2023-06-26T06:08:21;98641.00;;;33.60
11321;BMP180;5715;48.234;14.320;2023-06-26T06:11:08;98641.00;;;32.30
11321;BMP180;5715;48.234;14.320;2023-06-26T06:13:56;98654.00;;;32.20
11321;BMP180;5715;48.234;14.320;2023-06-26T06:16:46;98652.00;;;32.80
11321;BMP180;5715;48.234;14.320;2023-06-26T06:19:34;98644.00;;;32.50
11321;BMP180;5715;48.234;14.320;2023-06-26T06:22:21;98648.00;;;33.90
11321;BMP180;5715;48.234;14.320;2023-06-26T06:25:09;98644.00;;;32.60
11321;BMP180;5715;48.234;14.320;2023-06-26T06:27:57;98640.00;;;32.50
11321;BMP180;5715;48.234;14.320;2023-06-26T06:30:44;98636.00;;;32.30
11321;BMP180;5715;48.234;14.320;2023-06-26T06:33:35;98637.00;;;31.60
11321;BMP180;5715;48.234;14.320;2023-06-26T06:36:22;98636.00;;;31.10
11321;BMP180;5715;48.234;14.320;2023-06-26T06:39:10;98645.00;;;30.80
11321;BMP180;5715;48.234;14.320;2023-06-26T06:41:58;98637.00;;;30.80
11321;BMP180;5715;48.234;14.320;2023-06-26T06:44:45;98634.00;;;30.70
11321;BMP180;5715;48.234;14.320;2023-06-26T06:47:34;98636.00;;;30.80
11321;BMP180;5715;48.234;14.320;2023-06-26T06:50:22;98641.00;;;30.70
11321;BMP180;5715;48.234;14.320;2023-06-26T06:53:09;98639.00;;;30.90
11321;BMP180;5715;48.234;14.320;2023-06-26T06:55:57;98634.00;;;31.30
11321;BMP180;5715;48.234;14.320;2023-06-26T06:58:44;98629.00;;;31.70
11321;BMP180;5715;48.234;14.320;2023-06-26T07:01:33;98617.00;;;31.70
11321;BMP180;5715;48.234;14.320;2023-06-26T07:04:21;98623.00;;;31.90
11321;BMP180;5715;48.234;14.320;2023-06-26T07:07:08;98622.00;;;31.80
11321;BMP180;5715;48.234;14.320;2023-06-26T07:10:12;98633.00;;;31.70
11321;BMP180;5715;48.234;14.320;2023-06-26T07:13:00;98638.00;;;31.20
11321;BMP180;5715;48.234;14.320;2023-06-26T07:15:48;98639.00;;;31.10
11321;BMP180;5715;48.234;14.320;2023-06-26T07:18:38;98621.00;;;31.30
11321;BMP180;5715;48.234;14.320;2023-06-26T07:21:26;98623.00;;;31.30
11321;BMP180;5715;48.234;14.320;2023-06-26T07:24:13;98628.00;;;31.60
11321;BMP180;5715;48.234;14.320;2023-06-26T07:27:01;98614.00;;;31.80
11321;BMP180;5715;48.234;14.320;2023-06-26T07:29:48;98616.00;;;31.90
11321;BMP180;5715;48.234;14.320;2023-06-26T07:32:37;98617.00;;;31.90
11321;BMP180;5715;48.234;14.320;2023-06-26T07:35:25;98613.00;;;32.10
11321;BMP180;5715;48.234;14.320;2023-06-26T07:38:14;98609.00;;;32.00
11321;BMP180;5715;48.234;14.320;2023-06-26T07:41:02;98609.00;;;32.20
11321;BMP180;5715;48.234;14.320;2023-06-26T07:43:49;98618.00;;;32.40
11321;BMP180;5715;48.234;14.320;2023-06-26T07:46:37;98624.00;;;32.80
11321;BMP180;5715;48.234;14.320;2023-06-26T07:49:24;98623.00;;;32.80
11321;BMP180;5715;48.234;14.320;2023-06-26T07:52:12;98620.00;;;32.70
11321;BMP180;5715;48.234;14.320;2023-06-26T07:55:02;98622.00;;;32.70
11321;BMP180;5715;48.234;14.320;2023-06-26T07:57:50;98610.00;;;32.70
11321;BMP180;5715;48.234;14.320;2023-06-26T08:00:40;98611.00;;;32.70
11321;BMP180;5715;48.234;14.320;2023-06-26T08:03:28;98620.00;;;32.60
11321;BMP180;5715;48.234;14.320;2023-06-26T08:06:22;98610.00;;;32.00
11321;BMP180;5715;48.234;14.320;2023-06-26T08:09:09;98620.00;;;32.80
11321;BMP180;5715;48.234;14.320;2023-06-26T08:11:58;98619.00;;;33.30
11321;BMP180;5715;48.234;14.320;2023-06-26T08:14:46;98619.00;;;33.40
11321;BMP180;5715;48.234;14.320;2023-06-26T08:17:34;98612.00;;;33.80
11321;BMP180;5715;48.234;14.320;2023-06-26T08:20:22;98607.00;;;33.90
11321;BMP180;5715;48.234;14.320;2023-06-26T08:23:09;98603.00;;;33.90
11321;BMP180;5715;48.234;14.320;2023-06-26T08:25:57;98611.00;;;34.50
11321;BMP180;5715;48.234;14.320;2023-06-26T08:28:46;98606.00;;;34.50
11321;BMP180;5715;48.234;14.320;2023-06-26T08:31:34;98605.00;;;34.90
11321;BMP180;5715;48.234;14.320;2023-06-26T08:34:23;98606.00;;;35.30
11321;BMP180;5715;48.234;14.320;2023-06-26T08:37:10;98601.00;;;35.60
11321;BMP180;5715;48.234;14.320;2023-06-26T08:40:00;98601.00;;;35.60
11321;BMP180;5715;48.234;14.320;2023-06-26T08:42:47;98598.00;;;36.00
11321;BMP180;5715;48.234;14.320;2023-06-26T08:45:40;98597.00;;;35.90
11321;BMP180;5715;48.234;14.320;2023-06-26T08:48:32;98594.00;;;35.00
11321;BMP180;5715;48.234;14.320;2023-06-26T08:51:27;98589.00;;;35.50
11321;BMP180;5715;48.234;14.320;2023-06-26T08:54:27;98585.00;;;35.60
11321;BMP180;5715;48.234;14.320;2023-06-26T08:57:19;98591.00;;;35.90
11321;BMP180;5715;48.234;14.320;2023-06-26T09:00:08;98589.00;;;36.50
11321;BMP180;5715;48.234;14.320;2023-06-26T09:02:57;98585.00;;;35.90
11321;BMP180;5715;48.234;14.320;2023-06-26T09:05:45;98582.00;;;35.80
11321;BMP180;5715;48.234;14.320;2023-06-26T09:08:34;98591.00;;;35.70
11321;BMP180;5715;48.234;14.320;2023-06-26T09:11:21;98580.00;;;35.90
11321;BMP180;5715;48.234;14.320;2023-06-26T09:14:10;98582.00;;;36.40
11321;BMP180;5715;48.234;14.320;2023-06-26T09:16:57;98581.00;;;36.50
11321;BMP180;5715;48.234;14.320;2023-06-26T09:19:48;98576.00;;;36.40
11321;BMP180;5715;48.234;14.320;2023-06-26T09:22:42;98574.00;;;36.50
11321;BMP180;5715;48.234;14.320;2023-06-26T09:25:30;98572.00;;;35.70
11321;BMP180;5715;48.234;14.320;2023-06-26T09:28:18;98568.00;;;36.40
11321;BMP180;5715;48.234;14.320;2023-06-26T09:31:07;98567.00;;;35.90
11321;BMP180;5715;48.234;14.320;2023-06-26T09:33:59;98563.00;;;36.20
11321;BMP180;5715;48.234;14.320;2023-06-26T09:36:47;98565.00;;;36.70
11321;BMP180;5715;48.234;14.320;2023-06-26T09:39:36;98564.00;;;36.20
11321;BMP180;5715;48.234;14.320;2023-06-26T09:42:24;98559.00;;;35.80
11321;BMP180;5715;48.234;14.320;2023-06-26T09:45:18;98555.00;;;36.30
11321;BMP180;5715;48.234;14.320;2023-06-26T09:48:07;98556.00;;;36.80
11321;BMP180;5715;48.234;14.320;2023-06-26T09:50:56;98553.00;;;37.00
11321;BMP180;5715;48.234;14.320;2023-06-26T09:54:01;98553.00;;;37.10
11321;BMP180;5715;48.234;14.320;2023-06-26T09:56:49;98556.00;;;37.30
11321;BMP180;5715;48.234;14.320;2023-06-26T09:59:37;98557.00;;;37.40
11321;BMP180;5715;48.234;14.320;2023-06-26T10:02:25;98544.00;;;37.30
11321;BMP180;5715;48.234;14.320;2023-06-26T10:05:13;98539.00;;;38.00
11321;BMP180;5715;48.234;14.320;2023-06-26T10:08:02;98531.00;;;38.10
11321;BMP180;5715;48.234;14.320;2023-06-26T10:10:53;98539.00;;;38.10
11321;BMP180;5715;48.234;14.320;2023-06-26T10:13:43;98528.00;;;37.10
11321;BMP180;5715;48.234;14.320;2023-06-26T10:16:36;98540.00;;;37.90
11321;BMP180;5715;48.234;14.320;2023-06-26T10:19:27;98538.00;;;37.90
11321;BMP180;5715;48.234;14.320;2023-06-26T10:22:17;98524.00;;;37.60
11321;BMP180;5715;48.234;14.320;2023-06-26T10:25:07;98522.00;;;37.30
11321;BMP180;5715;48.234;14.320;2023-06-26T10:27:58;98530.00;;;37.40
11321;BMP180;5715;48.234;14.320;2023-06-26T10:30:51;98521.00;;;37.80
11321;BMP180;5715;48.234;14.320;2023-06-26T10:33:40;98522.00;;;37.40
11321;BMP180;5715;48.234;14.320;2023-06-26T10:36:30;98514.00;;;37.90
11321;BMP180;5715;48.234;14.320;2023-06-26T10:39:18;98510.00;;;38.10
11321;BMP180;5715;48.234;14.320;2023-06-26T10:42:09;98513.00;;;38.00
11321;BMP180;5715;48.234;14.320;2023-06-26T10:45:19;98511.00;;;37.50
11321;BMP180;5715;48.234;14.320;2023-06-26T10:48:07;98503.00;;;37.80
11321;BMP180;5715;48.234;14.320;2023-06-26T10:50:55;98501.00;;;38.30
11321;BMP180;5715;48.234;14.320;2023-06-26T10:53:43;98489.00;;;38.00
11321;BMP180;5715;48.234;14.320;2023-06-26T10:56:55;98490.00;;;37.20
11321;BMP180;5715;48.234;14.320;2023-06-26T10:59:46;98492.00;;;37.70
11321;BMP180;5715;48.234;14.320;2023-06-26T11:02:50;98487.00;;;38.10
11321;BMP180;5715;48.234;14.320;2023-06-26T11:05:38;98485.00;;;37.80
11321;BMP180;5715;48.234;14.320;2023-06-26T11:08:48;98492.00;;;37.40
11321;BMP180;5715;48.234;14.320;2023-06-26T11:14:40;98486.00;;;37.40
11321;BMP180;5715;48.234;14.320;2023-06-26T11:17:29;98484.00;;;38.30
11321;BMP180;5715;48.234;14.320;2023-06-26T11:20:17;98485.00;;;37.30
11321;BMP180;5715;48.234;14.320;2023-06-26T11:23:05;98478.00;;;37.70
11321;BMP180;5715;48.234;14.320;2023-06-26T11:25:55;98479.00;;;37.20
11321;BMP180;5715;48.234;14.320;2023-06-26T11:28:53;98477.00;;;38.00
11321;BMP180;5715;48.234;14.320;2023-06-26T11:31:42;98477.00;;;38.30
11321;BMP180;5715;48.234;14.320;2023-06-26T11:34:30;98471.00;;;38.20
11321;BMP180;5715;48.234;14.320;2023-06-26T11:37:20;98469.00;;;38.20
11321;BMP180;5715;48.234;14.320;2023-06-26T11:40:19;98471.00;;;37.40
11321;BMP180;5715;48.234;14.320;2023-06-26T11:43:06;98458.00;;;38.10
11321;BMP180;5715;48.234;14.320;2023-06-26T11:45:55;98463.00;;;38.10
11321;BMP180;5715;48.234;14.320;2023-06-26T11:48:43;98465.00;;;38.00
11321;BMP180;5715;48.234;14.320;2023-06-26T11:51:32;98464.00;;;38.60
11321;BMP180;5715;48.234;14.320;2023-06-26T11:54:25;98463.00;;;38.50
11321;BMP180;5715;48.234;14.320;2023-06-26T11:57:16;98452.00;;;38.30
11321;BMP180;5715;48.234;14.320;2023-06-26T12:00:14;98461.00;;;38.80
11321;BMP180;5715;48.234;14.320;2023-06-26T12:03:05;98452.00;;;38.70
11321;BMP180;5715;48.234;14.320;2023-06-26T12:05:53;98445.00;;;38.20
11321;BMP180;5715;48.234;14.320;2023-06-26T12:08:41;98449.00;;;38.10
11321;BMP180;5715;48.234;14.320;2023-06-26T12:11:30;98445.00;;;37.60
11321;BMP180;5715;48.234;14.320;2023-06-26T12:14:22;98445.00;;;37.40
11321;BMP180;5715;48.234;14.320;2023-06-26T12:17:13;98446.00;;;38.70
11321;BMP180;5715;48.234;14.320;2023-06-26T12:20:01;98450.00;;;39.00
11321;BMP180;5715;48.234;14.320;2023-06-26T12:22:51;98449.00;;;38.30
11321;BMP180;5715;48.234;14.320;2023-06-26T12:25:38;98441.00;;;37.70
11321;BMP180;5715;48.234;14.320;2023-06-26T12:28:26;98446.00;;;38.10
11321;BMP180;5715;48.234;14.320;2023-06-26T12:31:20;98438.00;;;39.00
11321;BMP180;5715;48.234;14.320;2023-06-26T12:34:14;98445.00;;;39.10
11321;BMP180;5715;48.234;14.320;2023-06-26T12:37:08;98443.00;;;40.20
11321;BMP180;5715;48.234;14.320;2023-06-26T12:39:58;98434.00;;;39.00
11321;BMP180;5715;48.234;14.320;2023-06-26T12:42:46;98439.00;;;39.80
11321;BMP180;5715;48.234;14.320;2023-06-26T12:45:41;98451.00;;;39.10
11321;BMP180;5715;48.234;14.320;2023-06-26T12:48:43;98438.00;;;38.40
11321;BMP180;5715;48.234;14.320;2023-06-26T12:51:31;98428.00;;;39.60
11321;BMP180;5715;48.234;14.320;2023-06-26T12:54:20;98438.00;;;38.80
11321;BMP180;5715;48.234;14.320;2023-06-26T12:57:08;98439.00;;;40.00
11321;BMP180;5715;48.234;14.320;2023-06-26T12:59:56;98433.00;;;39.90
11321;BMP180;5715;48.234;14.320;2023-06-26T13:02:44;98434.00;;;40.00
11321;BMP180;5715;48.234;14.320;2023-06-26T13:05:31;98435.00;;;40.00
11321;BMP180;5715;48.234;14.320;2023-06-26T13:08:19;98428.00;;;39.40
11321;BMP180;5715;48.234;14.320;2023-06-26T13:11:07;98420.00;;;39.60
11321;BMP180;5715;48.234;14.320;2023-06-26T13:13:54;98411.00;;;39.90
11321;BMP180;5715;48.234;14.320;2023-06-26T13:16:57;98405.00;;;40.20
11321;BMP180;5715;48.234;14.320;2023-06-26T13:19:44;98411.00;;;40.70
11321;BMP180;5715;48.234;14.320;2023-06-26T13:22:32;98406.00;;;40.80
11321;BMP180;5715;48.234;14.320;2023-06-26T13:25:20;98405.00;;;40.20
11321;BMP180;5715;48.234;14.320;2023-06-26T13:28:08;98399.00;;;39.00
11321;BMP180;5715;48.234;14.320;2023-06-26T13:30:56;98394.00;;;39.40
11321;BMP180;5715;48.234;14.320;2023-06-26T13:33:45;98400.00;;;39.90
11321;BMP180;5715;48.234;14.320;2023-06-26T13:36:35;98384.00;;;39.90
11321;BMP180;5715;48.234;14.320;2023-06-26T13:39:25;98383.00;;;39.30
11321;BMP180;5715;48.234;14.320;2023-06-26T13:42:12;98383.00;;;39.30
11321;BMP180;5715;48.234;14.320;2023-06-26T13:45:00;98372.00;;;39.90
11321;BMP180;5715;48.234;14.320;2023-06-26T13:47:58;98374.00;;;39.70
11321;BMP180;5715;48.234;14.320;2023-06-26T13:50:46;98380.00;;;39.20
11321;BMP180;5715;48.234;14.320;2023-06-26T13:53:40;98381.00;;;39.20
11321;BMP180;5715;48.234;14.320;2023-06-26T13:56:28;98377.00;;;39.10
11321;BMP180;5715;48.234;14.320;2023-06-26T13:59:18;98370.00;;;39.30
11321;BMP180;5715;48.234;14.320;2023-06-26T14:02:08;98363.00;;;38.40
11321;BMP180;5715;48.234;14.320;2023-06-26T14:04:56;98361.00;;;39.10
11321;BMP180;5715;48.234;14.320;2023-06-26T14:07:44;98361.00;;;40.00
11321;BMP180;5715;48.234;14.320;2023-06-26T14:10:32;98353.00;;;38.70
11321;BMP180;5715;48.234;14.320;2023-06-26T14:13:24;98364.00;;;39.60
11321;BMP180;5715;48.234;14.320;2023-06-26T14:16:11;98355.00;;;39.70
11321;BMP180;5715;48.234;14.320;2023-06-26T14:18:59;98355.00;;;40.30
11321;BMP180;5715;48.234;14.320;2023-06-26T14:21:47;98353.00;;;39.70
11321;BMP180;5715;48.234;14.320;2023-06-26T14:24:34;98350.00;;;39.80
11321;BMP180;5715;48.234;14.320;2023-06-26T14:27:22;98349.00;;;39.70
11321;BMP180;5715;48.234;14.320;2023-06-26T14:30:10;98348.00;;;39.30
11321;BMP180;5715;48.234;14.320;2023-06-26T14:32:57;98346.00;;;39.30
11321;BMP180;5715;48.234;14.320;2023-06-26T14:35:45;98339.00;;;39.30
11321;BMP180;5715;48.234;14.320;2023-06-26T14:38:33;98337.00;;;39.80
11321;BMP180;5715;48.234;14.320;2023-06-26T14:41:21;98336.00;;;39.40
11321;BMP180;5715;48.234;14.320;2023-06-26T14:44:09;98336.00;;;38.80
11321;BMP180;5715;48.234;14.320;2023-06-26T14:46:59;98337.00;;;39.50
11321;BMP180;5715;48.234;14.320;2023-06-26T14:49:46;98331.00;;;38.70
11321;BMP180;5715;48.234;14.320;2023-06-26T14:52:34;98323.00;;;39.00
11321;BMP180;5715;48.234;14.320;2023-06-26T14:55:22;98324.00;;;39.50
11321;BMP180;5715;48.234;14.320;2023-06-26T14:58:09;98317.00;;;38.90
11321;BMP180;5715;48.234;14.320;2023-06-26T15:00:58;98320.00;;;39.10
11321;BMP180;5715;48.234;14.320;2023-06-26T15:03:46;98317.00;;;38.90
11321;BMP180;5715;48.234;14.320;2023-06-26T15:06:34;98303.00;;;38.20
11321;BMP180;5715;48.234;14.320;2023-06-26T15:09:22;98311.00;;;39.50
11321;BMP180;5715;48.234;14.320;2023-06-26T15:12:10;98295.00;;;39.40
11321;BMP180;5715;48.234;14.320;2023-06-26T15:14:58;98298.00;;;39.80
11321;BMP180;5715;48.234;14.320;2023-06-26T15:17:46;98303.00;;;39.00
11321;BMP180;5715;48.234;14.320;2023-06-26T15:20:34;98305.00;;;40.10
11321;BMP180;5715;48.234;14.320;2023-06-26T15:23:21;98294.00;;;40.80
11321;BMP180;5715;48.234;14.320;2023-06-26T15:26:09;98293.00;;;41.20
11321;BMP180;5715;48.234;14.320;2023-06-26T15:28:56;98283.00;;;40.70
11321;BMP180;5715;48.234;14.320;2023-06-26T15:31:44;98291.00;;;40.90
11321;BMP180;5715;48.234;14.320;2023-06-26T15:34:32;98286.00;;;41.40
11321;BMP180;5715;48.234;14.320;2023-06-26T15:37:19;98275.00;;;40.30
11321;BMP180;5715;48.234;14.320;2023-06-26T15:40:09;98284.00;;;40.20
11321;BMP180;5715;48.234;14.320;2023-06-26T15:42:58;98273.00;;;39.70
11321;BMP180;5715;48.234;14.320;2023-06-26T15:45:46;98278.00;;;40.40
11321;BMP180;5715;48.234;14.320;2023-06-26T15:48:33;98266.00;;;40.00
11321;BMP180;5715;48.234;14.320;2023-06-26T15:51:22;98264.00;;;40.30
11321;BMP180;5715;48.234;14.320;2023-06-26T15:54:09;98255.00;;;38.90
11321;BMP180;5715;48.234;14.320;2023-06-26T15:56:57;98256.00;;;38.10
11321;BMP180;5715;48.234;14.320;2023-06-26T15:59:44;98260.00;;;39.30
11321;BMP180;5715;48.234;14.320;2023-06-26T16:02:32;98258.00;;;39.10
11321;BMP180;5715;48.234;14.320;2023-06-26T16:05:19;98248.00;;;39.40
11321;BMP180;5715;48.234;14.320;2023-06-26T16:08:07;98251.00;;;40.20
11321;BMP180;5715;48.234;14.320;2023-06-26T16:10:55;98246.00;;;39.30
11321;BMP180;5715;48.234;14.320;2023-06-26T16:13:43;98249.00;;;39.50
11321;BMP180;5715;48.234;14.320;2023-06-26T16:16:31;98249.00;;;39.90
11321;BMP180;5715;48.234;14.320;2023-06-26T16:19:20;98253.00;;;39.70
11321;BMP180;5715;48.234;14.320;2023-06-26T16:22:08;98239.00;;;38.30